sensor_id;sensor_type;location;lat;lon;timestamp;pressure;altitude;pressure_sealevel;temperature
47484;BMP280;54076;50.322;18.650;2022-11-20T00:04:51;98816.71;;;-4.07
47484;BMP280;54076;50.322;18.650;2022-11-20T00:09:52;98806.88;;;-4.07
47484;BMP280;54076;50.322;18.650;2022-11-20T00:14:53;98797.19;;;-4.17
47484;BMP280;54076;50.322;18.650;2022-11-20T00:19:53;98800.10;;;-4.25
47484;BMP280;54076;50.322;18.650;2022-11-20T00:24:55;98792.89;;;-4.26
47484;BMP280;54076;50.322;18.650;2022-11-20T00:29:58;98799.98;;;-4.20
47484;BMP280;54076;50.322;18.650;2022-11-20T00:34:59;98801.88;;;-4.25
47484;BMP280;54076;50.322;18.650;2022-11-20T00:40:00;98809.20;;;-4.26
47484;BMP280;54076;50.322;18.650;2022-11-20T00:45:01;98804.35;;;-4.34
47484;BMP280;54076;50.322;18.650;2022-11-20T00:50:03;98798.90;;;-4.35
47484;BMP280;54076;50.322;18.650;2022-11-20T00:55:04;98800.92;;;-4.29
47484;BMP280;54076;50.322;18.650;2022-11-20T01:00:06;98792.95;;;-4.41
47484;BMP280;54076;50.322;18.650;2022-11-20T01:05:08;98790.46;;;-4.39
47484;BMP280;54076;50.322;18.650;2022-11-20T01:10:09;98784.48;;;-4.30
47484;BMP280;54076;50.322;18.650;2022-11-20T01:15:09;98777.90;;;-4.31
47484;BMP280;54076;50.322;18.650;2022-11-20T01:20:11;98778.80;;;-4.19
47484;BMP280;54076;50.322;18.650;2022-11-20T01:25:12;98775.61;;;-4.13
47484;BMP280;54076;50.322;18.650;2022-11-20T01:30:13;98777.27;;;-4.08
47484;BMP280;54076;50.322;18.650;2022-11-20T01:35:14;98773.99;;;-4.26
47484;BMP280;54076;50.322;18.650;2022-11-20T01:40:15;98768.06;;;-4.23
47484;BMP280;54076;50.322;18.650;2022-11-20T01:50:53;98754.14;;;-4.11
47484;BMP280;54076;50.322;18.650;2022-11-20T01:55:56;98751.61;;;-4.18
47484;BMP280;54076;50.322;18.650;2022-11-20T02:00:59;98748.36;;;-4.09
47484;BMP280;54076;50.322;18.650;2022-11-20T02:06:27;98748.72;;;-4.01
47484;BMP280;54076;50.322;18.650;2022-11-20T02:11:30;98752.59;;;-4.02
47484;BMP280;54076;50.322;18.650;2022-11-20T02:16:54;98748.41;;;-4.14
47484;BMP280;54076;50.322;18.650;2022-11-20T02:22:21;98751.60;;;-4.22
47484;BMP280;54076;50.322;18.650;2022-11-20T02:27:25;98763.01;;;-4.20
47484;BMP280;54076;50.322;18.650;2022-11-20T02:32:31;98770.92;;;-4.14
47484;BMP280;54076;50.322;18.650;2022-11-20T02:37:36;98771.09;;;-4.16
47484;BMP280;54076;50.322;18.650;2022-11-20T02:42:37;98778.10;;;-4.15
47484;BMP280;54076;50.322;18.650;2022-11-20T02:47:39;98776.06;;;-4.08
47484;BMP280;54076;50.322;18.650;2022-11-20T02:52:40;98782.60;;;-3.86
47484;BMP280;54076;50.322;18.650;2022-11-20T02:57:41;98783.61;;;-3.75
47484;BMP280;54076;50.322;18.650;2022-11-20T03:02:42;98784.06;;;-3.76
47484;BMP280;54076;50.322;18.650;2022-11-20T03:07:43;98783.10;;;-3.69
47484;BMP280;54076;50.322;18.650;2022-11-20T03:12:44;98778.84;;;-3.76
47484;BMP280;54076;50.322;18.650;2022-11-20T03:17:46;98780.59;;;-3.82
47484;BMP280;54076;50.322;18.650;2022-11-20T03:22:47;98781.64;;;-3.86
47484;BMP280;54076;50.322;18.650;2022-11-20T03:27:48;98782.52;;;-3.79
47484;BMP280;54076;50.322;18.650;2022-11-20T03:32:53;98779.25;;;-3.69
47484;BMP280;54076;50.322;18.650;2022-11-20T03:37:54;98771.69;;;-3.85
47484;BMP280;54076;50.322;18.650;2022-11-20T03:42:55;98777.95;;;-3.92
47484;BMP280;54076;50.322;18.650;2022-11-20T03:47:56;98767.55;;;-3.90
47484;BMP280;54076;50.322;18.650;2022-11-20T03:52:58;98778.05;;;-3.86
47484;BMP280;54076;50.322;18.650;2022-11-20T03:57:59;98772.67;;;-3.89
47484;BMP280;54076;50.322;18.650;2022-11-20T04:03:02;98774.20;;;-3.88
47484;BMP280;54076;50.322;18.650;2022-11-20T04:08:03;98782.08;;;-3.96
47484;BMP280;54076;50.322;18.650;2022-11-20T04:13:04;98787.33;;;-3.98
47484;BMP280;54076;50.322;18.650;2022-11-20T04:18:05;98784.13;;;-4.10
47484;BMP280;54076;50.322;18.650;2022-11-20T04:23:06;98778.77;;;-3.96
47484;BMP280;54076;50.322;18.650;2022-11-20T04:28:07;98771.16;;;-4.01
47484;BMP280;54076;50.322;18.650;2022-11-20T04:33:08;98770.31;;;-4.07
47484;BMP280;54076;50.322;18.650;2022-11-20T04:38:09;98756.32;;;-4.08
47484;BMP280;54076;50.322;18.650;2022-11-20T04:43:10;98754.98;;;-4.12
47484;BMP280;54076;50.322;18.650;2022-11-20T04:48:11;98743.55;;;-4.12
47484;BMP280;54076;50.322;18.650;2022-11-20T04:53:13;98741.05;;;-4.15
47484;BMP280;54076;50.322;18.650;2022-11-20T04:58:15;98743.69;;;-4.15
47484;BMP280;54076;50.322;18.650;2022-11-20T05:03:16;98735.52;;;-4.16
47484;BMP280;54076;50.322;18.650;2022-11-20T05:08:17;98731.39;;;-4.37
47484;BMP280;54076;50.322;18.650;2022-11-20T05:13:18;98722.36;;;-4.50
47484;BMP280;54076;50.322;18.650;2022-11-20T05:18:19;98716.48;;;-4.49
47484;BMP280;54076;50.322;18.650;2022-11-20T05:23:20;98716.92;;;-4.51
47484;BMP280;54076;50.322;18.650;2022-11-20T05:28:22;98720.04;;;-4.51
47484;BMP280;54076;50.322;18.650;2022-11-20T05:33:23;98724.08;;;-4.59
47484;BMP280;54076;50.322;18.650;2022-11-20T05:38:24;98715.45;;;-4.73
47484;BMP280;54076;50.322;18.650;2022-11-20T05:43:25;98720.38;;;-4.78
47484;BMP280;54076;50.322;18.650;2022-11-20T05:48:26;98718.34;;;-4.67
47484;BMP280;54076;50.322;18.650;2022-11-20T05:53:28;98719.98;;;-4.60
47484;BMP280;54076;50.322;18.650;2022-11-20T05:58:30;98722.08;;;-4.51
47484;BMP280;54076;50.322;18.650;2022-11-20T06:03:31;98719.27;;;-4.75
47484;BMP280;54076;50.322;18.650;2022-11-20T06:08:32;98706.46;;;-4.61
47484;BMP280;54076;50.322;18.650;2022-11-20T06:13:34;98710.76;;;-4.56
47484;BMP280;54076;50.322;18.650;2022-11-20T06:18:36;98706.08;;;-4.57
47484;BMP280;54076;50.322;18.650;2022-11-20T06:23:37;98702.46;;;-4.73
47484;BMP280;54076;50.322;18.650;2022-11-20T06:28:39;98705.48;;;-4.76
47484;BMP280;54076;50.322;18.650;2022-11-20T06:33:41;98706.84;;;-4.87
47484;BMP280;54076;50.322;18.650;2022-11-20T06:38:43;98709.85;;;-5.09
47484;BMP280;54076;50.322;18.650;2022-11-20T06:43:45;98708.94;;;-4.95
47484;BMP280;54076;50.322;18.650;2022-11-20T06:48:47;98712.05;;;-4.63
47484;BMP280;54076;50.322;18.650;2022-11-20T06:53:48;98705.40;;;-4.51
47484;BMP280;54076;50.322;18.650;2022-11-20T06:58:49;98699.27;;;-4.53
47484;BMP280;54076;50.322;18.650;2022-11-20T07:03:50;98693.82;;;-4.33
47484;BMP280;54076;50.322;18.650;2022-11-20T07:08:51;98691.31;;;-4.16
47484;BMP280;54076;50.322;18.650;2022-11-20T07:13:56;98685.79;;;-4.06
47484;BMP280;54076;50.322;18.650;2022-11-20T07:18:57;98689.56;;;-4.29
47484;BMP280;54076;50.322;18.650;2022-11-20T07:23:58;98680.17;;;-4.11
47484;BMP280;54076;50.322;18.650;2022-11-20T07:29:00;98668.38;;;-3.89
47484;BMP280;54076;50.322;18.650;2022-11-20T07:34:01;98679.35;;;-3.95
47484;BMP280;54076;50.322;18.650;2022-11-20T07:39:02;98672.85;;;-3.69
47484;BMP280;54076;50.322;18.650;2022-11-20T07:44:04;98669.62;;;-3.48
47484;BMP280;54076;50.322;18.650;2022-11-20T07:49:05;98659.29;;;-3.22
47484;BMP280;54076;50.322;18.650;2022-11-20T07:54:06;98663.13;;;-2.93
47484;BMP280;54076;50.322;18.650;2022-11-20T07:59:07;98673.06;;;-2.69
47484;BMP280;54076;50.322;18.650;2022-11-20T08:04:09;98671.80;;;-2.44
47484;BMP280;54076;50.322;18.650;2022-11-20T08:09:10;98675.31;;;-2.22
47484;BMP280;54076;50.322;18.650;2022-11-20T08:14:11;98679.22;;;-1.94
47484;BMP280;54076;50.322;18.650;2022-11-20T08:19:16;98682.60;;;-1.84
47484;BMP280;54076;50.322;18.650;2022-11-20T08:24:17;98688.79;;;-1.70
47484;BMP280;54076;50.322;18.650;2022-11-20T08:29:18;98686.52;;;-1.53
47484;BMP280;54076;50.322;18.650;2022-11-20T08:34:19;98697.15;;;-1.42
47484;BMP280;54076;50.322;18.650;2022-11-20T08:39:20;98700.04;;;-1.33
47484;BMP280;54076;50.322;18.650;2022-11-20T08:44:21;98699.45;;;-1.29
47484;BMP280;54076;50.322;18.650;2022-11-20T08:49:22;98690.45;;;-1.34
47484;BMP280;54076;50.322;18.650;2022-11-20T08:54:23;98685.55;;;-1.12
47484;BMP280;54076;50.322;18.650;2022-11-20T08:59:24;98686.88;;;-0.89
47484;BMP280;54076;50.322;18.650;2022-11-20T09:04:26;98697.13;;;-0.56
47484;BMP280;54076;50.322;18.650;2022-11-20T09:09:28;98691.92;;;-0.49
47484;BMP280;54076;50.322;18.650;2022-11-20T09:14:29;98682.05;;;-0.26
47484;BMP280;54076;50.322;18.650;2022-11-20T09:19:30;98680.27;;;-0.09
47484;BMP280;54076;50.322;18.650;2022-11-20T09:24:32;98681.66;;;0.20
47484;BMP280;54076;50.322;18.650;2022-11-20T09:29:35;98674.45;;;0.40
47484;BMP280;54076;50.322;18.650;2022-11-20T09:34:36;98667.95;;;0.60
47484;BMP280;54076;50.322;18.650;2022-11-20T09:39:37;98662.21;;;0.79
47484;BMP280;54076;50.322;18.650;2022-11-20T09:55:48;98639.92;;;1.22
47484;BMP280;54076;50.322;18.650;2022-11-20T10:00:51;98638.48;;;1.45
47484;BMP280;54076;50.322;18.650;2022-11-20T10:05:54;98628.66;;;1.56
47484;BMP280;54076;50.322;18.650;2022-11-20T10:11:13;98621.35;;;1.81
47484;BMP280;54076;50.322;18.650;2022-11-20T10:21:56;98606.32;;;2.27
47484;BMP280;54076;50.322;18.650;2022-11-20T10:27:22;98604.21;;;2.66
47484;BMP280;54076;50.322;18.650;2022-11-20T10:32:40;98599.71;;;3.42
47484;BMP280;54076;50.322;18.650;2022-11-20T10:37:44;98588.84;;;4.59
47484;BMP280;54076;50.322;18.650;2022-11-20T10:43:28;98583.13;;;4.89
47484;BMP280;54076;50.322;18.650;2022-11-20T10:48:32;98578.53;;;5.87
47484;BMP280;54076;50.322;18.650;2022-11-20T10:54:22;98577.80;;;6.65
47484;BMP280;54076;50.322;18.650;2022-11-20T11:00:07;98573.14;;;6.59
47484;BMP280;54076;50.322;18.650;2022-11-20T11:05:46;98567.92;;;6.74
47484;BMP280;54076;50.322;18.650;2022-11-20T11:11:15;98568.61;;;6.54
47484;BMP280;54076;50.322;18.650;2022-11-20T11:16:25;98566.13;;;6.48
47484;BMP280;54076;50.322;18.650;2022-11-20T11:21:27;98558.89;;;7.59
47484;BMP280;54076;50.322;18.650;2022-11-20T11:26:28;98559.26;;;7.49
47484;BMP280;54076;50.322;18.650;2022-11-20T11:31:33;98558.77;;;7.50
47484;BMP280;54076;50.322;18.650;2022-11-20T11:36:35;98541.78;;;7.85
47484;BMP280;54076;50.322;18.650;2022-11-20T11:41:36;98531.44;;;8.05
47484;BMP280;54076;50.322;18.650;2022-11-20T11:46:39;98529.55;;;7.86
47484;BMP280;54076;50.322;18.650;2022-11-20T11:57:05;98522.58;;;7.65
47484;BMP280;54076;50.322;18.650;2022-11-20T12:07:46;98520.62;;;7.91
47484;BMP280;54076;50.322;18.650;2022-11-20T12:12:54;98508.92;;;6.08
47484;BMP280;54076;50.322;18.650;2022-11-20T12:17:56;98512.19;;;7.22
47484;BMP280;54076;50.322;18.650;2022-11-20T12:23:22;98486.36;;;8.32
47484;BMP280;54076;50.322;18.650;2022-11-20T12:28:37;98468.89;;;8.09
47484;BMP280;54076;50.322;18.650;2022-11-20T12:39:03;98466.85;;;7.65
47484;BMP280;54076;50.322;18.650;2022-11-20T12:50:06;98459.89;;;7.55
47484;BMP280;54076;50.322;18.650;2022-11-20T12:55:33;98455.77;;;7.70
47484;BMP280;54076;50.322;18.650;2022-11-20T13:00:42;98447.61;;;7.49
47484;BMP280;54076;50.322;18.650;2022-11-20T13:06:16;98433.00;;;7.37
47484;BMP280;54076;50.322;18.650;2022-11-20T13:11:23;98436.26;;;6.46
47484;BMP280;54076;50.322;18.650;2022-11-20T13:21:47;98426.52;;;5.09
47484;BMP280;54076;50.322;18.650;2022-11-20T13:32:18;98436.77;;;4.42
47484;BMP280;54076;50.322;18.650;2022-11-20T13:37:36;98434.39;;;4.38
47484;BMP280;54076;50.322;18.650;2022-11-20T13:42:55;98429.00;;;4.12
47484;BMP280;54076;50.322;18.650;2022-11-20T13:48:01;98418.09;;;4.38
47484;BMP280;54076;50.322;18.650;2022-11-20T13:59:09;98420.36;;;4.06
47484;BMP280;54076;50.322;18.650;2022-11-20T14:04:28;98416.57;;;3.92
47484;BMP280;54076;50.322;18.650;2022-11-20T14:09:33;98418.98;;;3.86
47484;BMP280;54076;50.322;18.650;2022-11-20T14:14:34;98430.67;;;3.43
47484;BMP280;54076;50.322;18.650;2022-11-20T14:19:38;98422.83;;;3.23
47484;BMP280;54076;50.322;18.650;2022-11-20T14:24:41;98415.91;;;3.24
47484;BMP280;54076;50.322;18.650;2022-11-20T14:29:44;98421.16;;;3.05
47484;BMP280;54076;50.322;18.650;2022-11-20T14:34:49;98420.11;;;3.06
47484;BMP280;54076;50.322;18.650;2022-11-20T14:39:54;98416.10;;;3.01
47484;BMP280;54076;50.322;18.650;2022-11-20T14:44:59;98408.28;;;3.16
47484;BMP280;54076;50.322;18.650;2022-11-20T14:50:00;98404.23;;;3.11
47484;BMP280;54076;50.322;18.650;2022-11-20T14:55:03;98401.90;;;2.93
47484;BMP280;54076;50.322;18.650;2022-11-20T15:00:20;98397.20;;;2.89
47484;BMP280;54076;50.322;18.650;2022-11-20T15:05:26;98393.70;;;2.97
47484;BMP280;54076;50.322;18.650;2022-11-20T15:10:28;98391.94;;;3.04
47484;BMP280;54076;50.322;18.650;2022-11-20T15:15:35;98392.30;;;3.01
47484;BMP280;54076;50.322;18.650;2022-11-20T15:20:36;98379.70;;;3.10
47484;BMP280;54076;50.322;18.650;2022-11-20T15:25:39;98387.77;;;3.10
47484;BMP280;54076;50.322;18.650;2022-11-20T15:30:41;98386.14;;;3.22
47484;BMP280;54076;50.322;18.650;2022-11-20T15:35:42;98380.81;;;3.14
47484;BMP280;54076;50.322;18.650;2022-11-20T15:40:43;98380.30;;;3.00
47484;BMP280;54076;50.322;18.650;2022-11-20T15:45:51;98375.84;;;2.88
47484;BMP280;54076;50.322;18.650;2022-11-20T15:55:58;98365.23;;;2.92
47484;BMP280;54076;50.322;18.650;2022-11-20T16:00:59;98363.49;;;2.93
47484;BMP280;54076;50.322;18.650;2022-11-20T16:06:00;98370.64;;;2.82
47484;BMP280;54076;50.322;18.650;2022-11-20T16:11:02;98371.52;;;2.86
47484;BMP280;54076;50.322;18.650;2022-11-20T16:16:14;98375.44;;;2.85
47484;BMP280;54076;50.322;18.650;2022-11-20T16:21:19;98380.47;;;2.72
47484;BMP280;54076;50.322;18.650;2022-11-20T16:26:21;98380.11;;;2.67
47484;BMP280;54076;50.322;18.650;2022-11-20T16:31:22;98373.66;;;2.56
47484;BMP280;54076;50.322;18.650;2022-11-20T16:36:26;98376.73;;;2.38
47484;BMP280;54076;50.322;18.650;2022-11-20T16:41:32;98370.59;;;2.32
47484;BMP280;54076;50.322;18.650;2022-11-20T16:46:33;98368.10;;;2.36
47484;BMP280;54076;50.322;18.650;2022-11-20T16:51:35;98376.44;;;2.36
47484;BMP280;54076;50.322;18.650;2022-11-20T16:56:37;98386.00;;;2.25
47484;BMP280;54076;50.322;18.650;2022-11-20T17:01:38;98386.09;;;2.17
47484;BMP280;54076;50.322;18.650;2022-11-20T17:06:43;98387.05;;;1.99
47484;BMP280;54076;50.322;18.650;2022-11-20T17:11:44;98388.33;;;1.99
47484;BMP280;54076;50.322;18.650;2022-11-20T17:16:45;98379.33;;;1.95
47484;BMP280;54076;50.322;18.650;2022-11-20T17:21:46;98378.77;;;1.93
47484;BMP280;54076;50.322;18.650;2022-11-20T17:26:48;98375.61;;;1.87
47484;BMP280;54076;50.322;18.650;2022-11-20T17:31:50;98369.27;;;1.88
47484;BMP280;54076;50.322;18.650;2022-11-20T17:36:51;98358.13;;;1.83
47484;BMP280;54076;50.322;18.650;2022-11-20T17:41:52;98356.09;;;1.81
47484;BMP280;54076;50.322;18.650;2022-11-20T17:47:12;98343.11;;;1.72
47484;BMP280;54076;50.322;18.650;2022-11-20T17:52:13;98332.09;;;1.75
47484;BMP280;54076;50.322;18.650;2022-11-20T17:57:14;98336.45;;;1.75
47484;BMP280;54076;50.322;18.650;2022-11-20T18:02:33;98345.35;;;1.77
47484;BMP280;54076;50.322;18.650;2022-11-20T18:07:34;98351.44;;;1.64
47484;BMP280;54076;50.322;18.650;2022-11-20T18:12:35;98362.41;;;1.54
47484;BMP280;54076;50.322;18.650;2022-11-20T18:17:36;98356.97;;;1.40
47484;BMP280;54076;50.322;18.650;2022-11-20T18:22:38;98359.58;;;1.34
47484;BMP280;54076;50.322;18.650;2022-11-20T18:27:39;98354.70;;;1.30
47484;BMP280;54076;50.322;18.650;2022-11-20T18:32:40;98350.69;;;1.07
47484;BMP280;54076;50.322;18.650;2022-11-20T18:37:40;98345.72;;;1.12
47484;BMP280;54076;50.322;18.650;2022-11-20T18:42:41;98354.16;;;1.11
47484;BMP280;54076;50.322;18.650;2022-11-20T18:48:02;98356.23;;;1.16
47484;BMP280;54076;50.322;18.650;2022-11-20T18:53:03;98358.22;;;1.21
47484;BMP280;54076;50.322;18.650;2022-11-20T18:58:04;98361.30;;;1.22
47484;BMP280;54076;50.322;18.650;2022-11-20T19:03:05;98359.10;;;1.23
47484;BMP280;54076;50.322;18.650;2022-11-20T19:08:06;98361.06;;;1.26
47484;BMP280;54076;50.322;18.650;2022-11-20T19:13:07;98359.05;;;1.31
47484;BMP280;54076;50.322;18.650;2022-11-20T19:18:08;98357.19;;;1.35
47484;BMP280;54076;50.322;18.650;2022-11-20T19:23:17;98356.10;;;1.41
47484;BMP280;54076;50.322;18.650;2022-11-20T19:28:36;98346.73;;;2.20
47484;BMP280;54076;50.322;18.650;2022-11-20T19:33:37;98345.11;;;2.38
47484;BMP280;54076;50.322;18.650;2022-11-20T19:38:40;98342.95;;;2.39
47484;BMP280;54076;50.322;18.650;2022-11-20T19:43:42;98336.93;;;2.20
47484;BMP280;54076;50.322;18.650;2022-11-20T19:48:43;98335.30;;;1.98
47484;BMP280;54076;50.322;18.650;2022-11-20T19:53:44;98339.96;;;1.87
47484;BMP280;54076;50.322;18.650;2022-11-20T19:58:45;98338.90;;;1.93
47484;BMP280;54076;50.322;18.650;2022-11-20T20:03:47;98337.11;;;1.92
47484;BMP280;54076;50.322;18.650;2022-11-20T20:09:00;98337.59;;;1.83
47484;BMP280;54076;50.322;18.650;2022-11-20T20:14:07;98338.20;;;1.85
47484;BMP280;54076;50.322;18.650;2022-11-20T20:19:12;98334.95;;;1.82
47484;BMP280;54076;50.322;18.650;2022-11-20T20:24:13;98331.63;;;1.77
47484;BMP280;54076;50.322;18.650;2022-11-20T20:29:14;98332.77;;;1.73
47484;BMP280;54076;50.322;18.650;2022-11-20T20:34:17;98326.33;;;1.70
47484;BMP280;54076;50.322;18.650;2022-11-20T20:39:18;98331.83;;;1.77
47484;BMP280;54076;50.322;18.650;2022-11-20T20:44:19;98331.35;;;1.78
47484;BMP280;54076;50.322;18.650;2022-11-20T20:49:39;98332.19;;;1.88
47484;BMP280;54076;50.322;18.650;2022-11-20T20:54:42;98339.11;;;1.94
47484;BMP280;54076;50.322;18.650;2022-11-20T20:59:44;98336.11;;;2.05
47484;BMP280;54076;50.322;18.650;2022-11-20T21:04:45;98332.41;;;2.09
47484;BMP280;54076;50.322;18.650;2022-11-20T21:09:46;98329.41;;;2.08
47484;BMP280;54076;50.322;18.650;2022-11-20T21:14:47;98337.27;;;2.01
47484;BMP280;54076;50.322;18.650;2022-11-20T21:19:49;98342.99;;;2.05
47484;BMP280;54076;50.322;18.650;2022-11-20T21:24:50;98343.80;;;1.94
47484;BMP280;54076;50.322;18.650;2022-11-20T21:29:51;98362.29;;;1.85
47484;BMP280;54076;50.322;18.650;2022-11-20T21:34:52;98368.17;;;2.06
47484;BMP280;54076;50.322;18.650;2022-11-20T21:39:54;98360.58;;;2.14
47484;BMP280;54076;50.322;18.650;2022-11-20T21:44:55;98356.02;;;2.27
47484;BMP280;54076;50.322;18.650;2022-11-20T21:49:56;98355.98;;;2.20
47484;BMP280;54076;50.322;18.650;2022-11-20T21:54:56;98352.48;;;2.25
47484;BMP280;54076;50.322;18.650;2022-11-20T21:59:58;98360.76;;;2.37
47484;BMP280;54076;50.322;18.650;2022-11-20T22:04:59;98359.61;;;2.12
47484;BMP280;54076;50.322;18.650;2022-11-20T22:10:00;98354.33;;;2.21
47484;BMP280;54076;50.322;18.650;2022-11-20T22:15:01;98363.95;;;2.27
47484;BMP280;54076;50.322;18.650;2022-11-20T22:20:02;98366.21;;;2.10
47484;BMP280;54076;50.322;18.650;2022-11-20T22:25:03;98366.20;;;2.01
47484;BMP280;54076;50.322;18.650;2022-11-20T22:30:05;98363.79;;;2.03
47484;BMP280;54076;50.322;18.650;2022-11-20T22:35:07;98373.94;;;1.93
47484;BMP280;54076;50.322;18.650;2022-11-20T22:40:08;98382.23;;;1.87
47484;BMP280;54076;50.322;18.650;2022-11-20T22:45:10;98367.98;;;1.98
47484;BMP280;54076;50.322;18.650;2022-11-20T22:50:11;98359.90;;;1.98
47484;BMP280;54076;50.322;18.650;2022-11-20T22:55:12;98368.15;;;1.96
47484;BMP280;54076;50.322;18.650;2022-11-20T23:00:14;98367.05;;;1.94
47484;BMP280;54076;50.322;18.650;2022-11-20T23:05:15;98362.15;;;1.88
47484;BMP280;54076;50.322;18.650;2022-11-20T23:10:16;98369.94;;;1.75
47484;BMP280;54076;50.322;18.650;2022-11-20T23:15:17;98367.73;;;1.43
47484;BMP280;54076;50.322;18.650;2022-11-20T23:20:18;98364.03;;;1.15
47484;BMP280;54076;50.322;18.650;2022-11-20T23:25:19;98363.13;;;0.94
47484;BMP280;54076;50.322;18.650;2022-11-20T23:30:21;98358.34;;;1.11
47484;BMP280;54076;50.322;18.650;2022-11-20T23:35:22;98357.57;;;1.03
47484;BMP280;54076;50.322;18.650;2022-11-20T23:40:23;98354.54;;;0.91
47484;BMP280;54076;50.322;18.650;2022-11-20T23:45:24;98381.77;;;0.89
47484;BMP280;54076;50.322;18.650;2022-11-20T23:50:25;98385.98;;;0.80
47484;BMP280;54076;50.322;18.650;2022-11-20T23:55:27;98381.88;;;0.92
